createdAt,value
2022-12-06T00:01:32.141Z,27.75
2022-12-06T00:06:30.918Z,27.75
2022-12-06T00:09:01.856Z,27.60
2022-12-06T00:11:32.335Z,28.30
2022-12-06T00:14:02.654Z,26.60
2022-12-06T00:16:33.129Z,26.10
2022-12-06T00:19:01.955Z,27.58
2022-12-06T00:21:32.101Z,26.83
2022-12-06T00:24:01.752Z,27.42
2022-12-06T00:26:30.830Z,27.48
2022-12-06T00:29:00.774Z,27.15
2022-12-06T00:31:31.601Z,27.63
2022-12-06T00:34:02.286Z,27.10
2022-12-06T00:36:32.477Z,26.83
2022-12-06T00:39:01.627Z,25.85
2022-12-06T00:41:32.353Z,25.25
2022-12-06T00:44:00.431Z,23.98
2022-12-06T00:46:31.700Z,24.35
2022-12-06T00:49:01.524Z,23.73
2022-12-06T00:51:31.716Z,24.02
2022-12-06T00:54:00.382Z,24.33
2022-12-06T00:56:28.981Z,24.33
2022-12-06T00:58:57.594Z,22.67
2022-12-06T01:01:30.294Z,22.58
2022-12-06T01:06:30.661Z,22.30
2022-12-06T01:09:00.269Z,24.30
2022-12-06T01:11:29.493Z,23.48
2022-12-06T01:13:57.734Z,23.13
2022-12-06T01:16:29.017Z,23.88
2022-12-06T01:19:01.314Z,23.52
2022-12-06T01:21:29.858Z,22.55
2022-12-06T01:23:58.200Z,23.17
2022-12-06T01:26:27.938Z,23.33
2022-12-06T01:28:59.016Z,23.00
2022-12-06T01:31:30.842Z,23.58
2022-12-06T01:34:03.931Z,22.27
2022-12-06T01:36:32.088Z,23.05
2022-12-06T01:39:06.509Z,22.52
2022-12-06T01:41:34.650Z,21.85
2022-12-06T01:44:02.944Z,21.42
2022-12-06T01:46:34.027Z,21.48
2022-12-06T01:49:10.780Z,21.40
2022-12-06T01:51:39.620Z,22.50
2022-12-06T01:54:11.929Z,20.25
2022-12-06T01:56:41.023Z,21.02
2022-12-06T01:59:12.932Z,21.85
2022-12-06T02:01:41.881Z,21.60
2022-12-06T02:04:11.460Z,22.15
2022-12-06T02:06:41.349Z,22.00
2022-12-06T02:09:11.398Z,21.92
2022-12-06T02:11:41.526Z,21.73
2022-12-06T02:14:14.124Z,22.10
2022-12-06T02:16:57.059Z,24.17
2022-12-06T02:22:12.250Z,22.80
2022-12-06T02:25:00.596Z,22.67
2022-12-06T02:27:50.143Z,22.65
2022-12-06T02:30:46.289Z,24.00
2022-12-06T02:33:22.874Z,22.65
2022-12-06T02:35:57.731Z,23.30
2022-12-06T02:38:34.008Z,22.17
2022-12-06T02:41:10.510Z,21.67
2022-12-06T02:43:43.164Z,21.42
2022-12-06T02:46:14.479Z,21.45
2022-12-06T02:48:45.849Z,20.25
2022-12-06T02:51:18.135Z,19.15
2022-12-06T02:53:49.586Z,19.33
2022-12-06T02:56:19.484Z,18.90
2022-12-06T02:58:48.168Z,19.27
2022-12-06T03:01:19.230Z,19.73
2022-12-06T03:04:08.288Z,19.00
2022-12-06T03:06:49.127Z,20.63
2022-12-06T03:09:32.011Z,19.27
2022-12-06T03:12:07.726Z,19.17
2022-12-06T03:14:40.317Z,20.23
2022-12-06T03:17:17.475Z,19.75
2022-12-06T03:19:54.951Z,21.25
2022-12-06T03:22:28.750Z,21.70
2022-12-06T03:25:00.965Z,20.40
2022-12-06T03:27:31.254Z,20.38
2022-12-06T03:30:03.888Z,22.17
2022-12-06T03:32:39.296Z,22.38
2022-12-06T03:35:11.464Z,23.15
2022-12-06T03:37:45.676Z,22.95
2022-12-06T03:40:20.330Z,21.40
2022-12-06T03:42:51.439Z,22.02
2022-12-06T03:45:20.859Z,22.42
2022-12-06T03:47:56.294Z,24.10
2022-12-06T03:50:28.594Z,23.13
2022-12-06T03:52:56.882Z,24.25
2022-12-06T03:55:25.129Z,22.30
2022-12-06T03:57:53.285Z,24.63
2022-12-06T04:00:21.989Z,24.50
2022-12-06T04:02:53.845Z,24.83
2022-12-06T04:05:22.011Z,24.38
2022-12-06T04:07:50.171Z,24.25
2022-12-06T04:10:18.473Z,23.40
2022-12-06T04:13:01.502Z,22.17
2022-12-06T04:18:13.410Z,22.60
2022-12-06T04:21:01.491Z,23.48
2022-12-06T04:23:30.704Z,23.50
2022-12-06T04:25:58.826Z,22.75
2022-12-06T04:28:44.493Z,23.20
2022-12-06T04:31:30.377Z,23.63
2022-12-06T04:34:17.427Z,23.73
2022-12-06T04:37:05.740Z,22.30
2022-12-06T04:39:34.528Z,23.83
2022-12-06T04:42:20.763Z,22.05
2022-12-06T04:44:48.974Z,21.25
2022-12-06T04:47:17.483Z,20.10
2022-12-06T04:49:46.949Z,19.88
2022-12-06T04:52:15.583Z,17.13
2022-12-06T04:54:44.134Z,18.30
2022-12-06T04:57:13.979Z,17.23
2022-12-06T04:59:44.138Z,16.75
2022-12-06T05:02:14.323Z,17.25
2022-12-06T05:04:42.842Z,16.70
2022-12-06T05:07:12.864Z,16.25
2022-12-06T05:09:41.241Z,17.02
2022-12-06T05:12:09.817Z,15.13
2022-12-06T05:14:38.025Z,15.00
2022-12-06T05:17:06.079Z,15.20
2022-12-06T05:19:34.267Z,15.18
2022-12-06T05:22:02.371Z,14.00
2022-12-06T05:24:31.850Z,13.82
2022-12-06T05:26:59.958Z,12.60
2022-12-06T05:29:28.064Z,14.43
2022-12-06T05:31:56.232Z,12.32
2022-12-06T05:34:25.036Z,13.27
2022-12-06T05:36:53.149Z,12.82
2022-12-06T05:39:24.327Z,12.15
2022-12-06T05:41:53.804Z,11.63
2022-12-06T05:44:21.954Z,11.02
2022-12-06T05:46:50.065Z,10.65
2022-12-06T05:49:18.171Z,10.20
2022-12-06T05:51:46.267Z,11.15
2022-12-06T05:54:14.339Z,10.90
2022-12-06T05:56:42.491Z,11.23
2022-12-06T05:59:12.287Z,10.85
2022-12-06T06:01:40.514Z,11.52
2022-12-06T06:04:08.682Z,11.52
2022-12-06T06:06:36.804Z,12.23
2022-12-06T06:09:05.065Z,12.40
2022-12-06T06:11:33.192Z,11.50
2022-12-06T06:14:01.411Z,12.68
2022-12-06T06:16:32.514Z,11.90
2022-12-06T06:19:01.675Z,11.50
2022-12-06T06:21:30.022Z,11.52
2022-12-06T06:23:58.452Z,11.32
2022-12-06T06:26:26.566Z,12.65
2022-12-06T06:28:54.815Z,13.00
2022-12-06T06:31:23.075Z,12.52
2022-12-06T06:33:52.582Z,13.10
2022-12-06T06:36:20.743Z,13.25
2022-12-06T06:38:48.814Z,14.30
2022-12-06T06:41:17.271Z,13.50
2022-12-06T06:43:45.389Z,14.00
2022-12-06T06:46:13.583Z,13.32
2022-12-06T06:48:41.714Z,13.55
2022-12-06T06:51:13.176Z,14.63
2022-12-06T06:53:41.643Z,13.27
2022-12-06T06:56:11.138Z,14.48
2022-12-06T06:58:39.314Z,15.23
2022-12-06T07:01:16.367Z,14.85
2022-12-06T07:03:44.724Z,15.40
2022-12-06T07:06:14.746Z,15.98
2022-12-06T07:08:43.299Z,16.50
2022-12-06T07:11:12.092Z,17.05
2022-12-06T07:13:42.073Z,17.33
2022-12-06T07:16:15.056Z,17.08
2022-12-06T07:18:43.664Z,17.38
2022-12-06T07:21:14.985Z,16.48
2022-12-06T07:23:45.165Z,15.80
2022-12-06T07:26:15.004Z,15.85
2022-12-06T07:28:44.787Z,14.43
2022-12-06T07:31:15.139Z,14.07
2022-12-06T07:33:44.051Z,15.13
2022-12-06T07:36:17.255Z,13.93
2022-12-06T07:38:49.572Z,14.02
2022-12-06T07:41:36.763Z,13.07
2022-12-06T07:44:42.518Z,13.35
2022-12-06T07:47:10.620Z,13.95
2022-12-06T07:49:40.251Z,13.23
2022-12-06T07:52:12.145Z,12.82
2022-12-06T07:54:41.418Z,13.30
2022-12-06T07:57:09.610Z,12.05
2022-12-06T07:59:40.076Z,12.73
2022-12-06T08:02:08.964Z,13.80
2022-12-06T08:04:37.071Z,14.13
2022-12-06T08:07:05.144Z,14.18
2022-12-06T08:09:34.645Z,14.10
2022-12-06T08:12:02.736Z,14.77
2022-12-06T08:14:30.990Z,14.05
2022-12-06T08:17:01.367Z,15.90
2022-12-06T08:19:29.588Z,14.85
2022-12-06T08:21:57.772Z,15.00
2022-12-06T08:24:25.854Z,14.32
2022-12-06T08:26:56.198Z,13.80
2022-12-06T08:29:24.511Z,12.95
2022-12-06T08:31:52.640Z,13.45
2022-12-06T08:34:21.301Z,14.70
2022-12-06T08:36:49.463Z,14.73
2022-12-06T08:39:18.560Z,14.52
2022-12-06T08:41:59.048Z,13.02
2022-12-06T08:44:33.298Z,13.82
2022-12-06T08:47:02.676Z,13.77
2022-12-06T08:49:31.796Z,13.13
2022-12-06T08:52:00.398Z,13.02
2022-12-06T08:54:29.196Z,12.57
2022-12-06T08:56:57.291Z,9.35
2022-12-06T08:59:28.029Z,12.30
2022-12-06T09:01:57.595Z,11.40
2022-12-06T09:04:36.904Z,11.13
2022-12-06T09:07:10.194Z,10.48
2022-12-06T09:09:40.013Z,9.95
2022-12-06T09:12:08.266Z,9.65
2022-12-06T09:14:36.426Z,9.77
2022-12-06T09:17:07.263Z,9.88
2022-12-06T09:19:35.572Z,9.88
2022-12-06T09:22:03.714Z,9.65
2022-12-06T09:24:31.819Z,8.82
2022-12-06T09:27:00.003Z,12.15
2022-12-06T09:29:28.241Z,10.25
2022-12-06T09:31:56.595Z,9.80
2022-12-06T09:34:26.052Z,9.75
2022-12-06T09:36:57.574Z,11.30
2022-12-06T09:39:29.388Z,12.65
2022-12-06T09:42:25.540Z,11.37
2022-12-06T09:45:22.082Z,10.73
2022-12-06T09:48:08.184Z,11.82
2022-12-06T09:50:50.165Z,11.80
2022-12-06T09:53:27.060Z,11.43
2022-12-06T09:56:06.745Z,11.65
2022-12-06T09:58:54.401Z,10.32
2022-12-06T10:01:31.103Z,12.73
2022-12-06T10:04:13.358Z,11.23
2022-12-06T10:06:51.312Z,12.50
2022-12-06T10:09:33.757Z,13.45
2022-12-06T10:12:16.798Z,12.27
2022-12-06T10:17:40.917Z,11.00
2022-12-06T10:20:15.982Z,9.98
2022-12-06T10:23:00.587Z,10.50
2022-12-06T10:25:36.586Z,9.07
2022-12-06T10:28:12.481Z,9.68
2022-12-06T10:30:50.841Z,9.45
2022-12-06T10:33:28.698Z,9.80
2022-12-06T10:36:02.268Z,9.57
2022-12-06T10:38:36.552Z,9.50
2022-12-06T10:41:12.943Z,8.75
2022-12-06T10:43:52.538Z,10.35
2022-12-06T10:46:42.044Z,9.35
2022-12-06T10:49:18.328Z,8.45
2022-12-06T10:51:56.674Z,8.60
2022-12-06T10:54:31.569Z,8.02
2022-12-06T10:57:04.160Z,7.43
2022-12-06T10:59:38.320Z,9.25
2022-12-06T11:02:26.566Z,10.35
2022-12-06T11:04:59.346Z,9.73
2022-12-06T11:10:01.253Z,8.73
2022-12-06T11:12:33.656Z,9.15
2022-12-06T11:15:08.315Z,8.10
2022-12-06T11:17:43.286Z,8.88
2022-12-06T11:20:21.957Z,9.38
2022-12-06T11:23:06.169Z,11.23
2022-12-06T11:25:44.832Z,11.60
2022-12-06T11:28:25.785Z,13.02
2022-12-06T11:30:57.568Z,13.85
2022-12-06T11:33:31.638Z,10.75
2022-12-06T11:36:03.537Z,12.20
2022-12-06T11:38:32.536Z,11.53
2022-12-06T11:41:03.392Z,11.80
2022-12-06T11:43:35.279Z,11.13
2022-12-06T11:46:05.616Z,12.17
2022-12-06T11:48:35.896Z,11.98
2022-12-06T11:51:12.554Z,10.32
2022-12-06T11:53:49.068Z,12.07
2022-12-06T11:56:26.575Z,13.02
2022-12-06T11:59:07.967Z,13.15
2022-12-06T12:01:42.899Z,13.45
2022-12-06T12:04:42.618Z,14.50
2022-12-06T12:07:17.242Z,13.00
2022-12-06T12:09:54.347Z,13.48
2022-12-06T12:12:46.707Z,14.82
2022-12-06T12:15:18.424Z,13.83
2022-12-06T12:17:49.343Z,13.27
2022-12-06T12:20:22.275Z,17.02
2022-12-06T12:23:03.947Z,19.65
2022-12-06T12:25:34.405Z,15.15
2022-12-06T12:28:05.241Z,14.00
2022-12-06T12:30:36.159Z,14.55
2022-12-06T12:33:16.231Z,13.15
2022-12-06T12:35:46.253Z,14.52
2022-12-06T12:38:20.025Z,12.20
2022-12-06T12:40:50.980Z,13.88
2022-12-06T12:43:23.469Z,15.07
2022-12-06T12:46:20.520Z,13.80
2022-12-06T12:48:50.491Z,13.50
2022-12-06T12:51:28.031Z,13.70
2022-12-06T12:53:58.386Z,15.07
2022-12-06T12:56:26.936Z,17.42
2022-12-06T12:58:57.896Z,14.18
2022-12-06T13:01:42.347Z,12.68
2022-12-06T13:04:19.929Z,12.30
2022-12-06T13:06:52.481Z,11.23
2022-12-06T13:09:26.266Z,12.40
2022-12-06T13:11:59.370Z,11.55
2022-12-06T13:14:30.473Z,10.75
2022-12-06T13:17:04.326Z,9.98
2022-12-06T13:19:37.599Z,8.55
2022-12-06T13:22:16.097Z,9.85
2022-12-06T13:24:45.900Z,12.27
2022-12-06T13:27:18.729Z,8.68
2022-12-06T13:32:22.472Z,10.68
2022-12-06T13:34:56.662Z,11.52
2022-12-06T13:37:30.157Z,12.10
2022-12-06T13:39:59.734Z,12.77
2022-12-06T13:42:45.614Z,12.88
2022-12-06T13:45:42.781Z,10.35
2022-12-06T13:48:37.632Z,12.02
2022-12-06T13:51:10.217Z,12.45
2022-12-06T13:54:19.322Z,11.60
2022-12-06T13:56:47.559Z,11.27
2022-12-06T13:59:43.514Z,11.90
2022-12-06T14:02:51.638Z,12.48
2022-12-06T14:08:34.979Z,12.55
2022-12-06T14:11:23.513Z,12.35
2022-12-06T14:14:03.646Z,12.13
2022-12-06T14:16:36.474Z,13.07
2022-12-06T14:19:15.455Z,12.23
2022-12-06T14:21:45.808Z,12.45
2022-12-06T14:24:29.966Z,11.20
2022-12-06T14:27:15.517Z,13.80
2022-12-06T14:29:45.450Z,12.32
2022-12-06T14:32:13.845Z,11.65
2022-12-06T14:34:41.915Z,12.18
2022-12-06T14:37:19.743Z,11.50
2022-12-06T14:39:53.313Z,11.63
2022-12-06T14:42:41.370Z,12.68
2022-12-06T14:45:15.294Z,12.48
2022-12-06T14:47:45.414Z,12.07
2022-12-06T14:50:33.237Z,14.80
2022-12-06T14:53:06.416Z,14.63
2022-12-06T14:55:37.831Z,13.57
2022-12-06T14:58:16.572Z,16.50
2022-12-06T15:00:52.948Z,15.00
2022-12-06T15:03:29.074Z,14.48
2022-12-06T15:06:19.110Z,13.40
2022-12-06T15:08:53.645Z,12.48
2022-12-06T15:11:48.628Z,12.60
2022-12-06T15:16:47.564Z,12.57
2022-12-06T15:19:17.542Z,13.73
2022-12-06T15:21:45.725Z,12.00
2022-12-06T15:24:18.844Z,12.25
2022-12-06T15:26:48.628Z,12.35
2022-12-06T15:29:17.430Z,12.98
2022-12-06T15:31:49.720Z,13.07
2022-12-06T15:34:24.864Z,14.30
2022-12-06T15:37:08.935Z,14.23
2022-12-06T15:39:41.680Z,13.57
2022-12-06T15:42:17.850Z,12.00
2022-12-06T15:44:49.403Z,13.68
2022-12-06T15:47:19.573Z,15.02
2022-12-06T15:49:48.900Z,14.80
2022-12-06T15:52:18.345Z,16.25
2022-12-06T15:54:47.118Z,17.38
2022-12-06T15:57:17.171Z,16.02
2022-12-06T15:59:45.398Z,17.25
2022-12-06T16:02:15.880Z,17.63
2022-12-06T16:04:44.587Z,16.10
2022-12-06T16:07:18.529Z,15.40
2022-12-06T16:09:47.300Z,15.68
2022-12-06T16:12:17.006Z,16.50
2022-12-06T16:14:45.339Z,18.58
2022-12-06T16:17:13.406Z,18.73
2022-12-06T16:19:58.890Z,20.50
2022-12-06T16:22:40.854Z,22.35
2022-12-06T16:25:09.589Z,23.23
2022-12-06T16:27:39.081Z,24.60
2022-12-06T16:30:08.490Z,19.23
2022-12-06T16:32:36.655Z,20.58
2022-12-06T16:35:05.047Z,18.83
2022-12-06T16:37:33.192Z,17.80
2022-12-06T16:40:01.349Z,22.67
2022-12-06T16:42:29.473Z,17.45
2022-12-06T16:44:59.150Z,20.80
2022-12-06T16:49:54.722Z,19.10
2022-12-06T16:52:22.974Z,17.83
2022-12-06T16:54:51.019Z,18.20
2022-12-06T16:57:19.541Z,18.27
2022-12-06T16:59:47.944Z,17.80
2022-12-06T17:02:27.595Z,18.90
2022-12-06T17:04:56.300Z,17.45
2022-12-06T17:07:24.710Z,15.82
2022-12-06T17:09:52.901Z,13.80
2022-12-06T17:12:21.234Z,13.57
2022-12-06T17:14:49.404Z,14.30
2022-12-06T17:17:21.288Z,12.18
2022-12-06T17:19:50.521Z,13.00
2022-12-06T17:22:19.046Z,12.77
2022-12-06T17:24:47.619Z,11.90
2022-12-06T17:27:16.385Z,12.32
2022-12-06T17:29:45.395Z,10.20
2022-12-06T17:32:13.818Z,10.98
2022-12-06T17:34:43.321Z,9.07
2022-12-06T17:37:11.803Z,9.05
2022-12-06T17:39:40.027Z,10.07
2022-12-06T17:42:26.021Z,9.60
2022-12-06T17:44:54.254Z,9.25
2022-12-06T17:47:22.478Z,10.57
2022-12-06T17:49:52.669Z,9.93
2022-12-06T17:52:21.008Z,10.75
2022-12-06T17:54:49.276Z,12.70
2022-12-06T17:57:19.353Z,11.65
2022-12-06T17:59:48.698Z,13.27
2022-12-06T18:02:19.546Z,14.00
2022-12-06T18:04:48.628Z,14.57
2022-12-06T18:07:18.561Z,14.68
2022-12-06T18:09:46.978Z,15.52
2022-12-06T18:12:16.178Z,17.73
2022-12-06T18:14:44.753Z,16.27
2022-12-06T18:17:13.421Z,16.75
2022-12-06T18:19:41.889Z,17.88
2022-12-06T18:22:10.234Z,16.02
2022-12-06T18:24:39.799Z,19.98
2022-12-06T18:27:08.247Z,20.00
2022-12-06T18:29:36.593Z,20.67
2022-12-06T18:32:06.566Z,20.08
2022-12-06T18:34:35.222Z,22.33
2022-12-06T18:37:03.540Z,21.17
2022-12-06T18:39:31.928Z,22.67
2022-12-06T18:42:01.488Z,22.25
2022-12-06T18:44:29.710Z,24.58
2022-12-06T18:47:00.599Z,24.73
2022-12-06T18:49:31.109Z,25.33
2022-12-06T18:51:59.241Z,22.40
2022-12-06T18:54:28.211Z,22.38
2022-12-06T18:56:58.898Z,23.67
2022-12-06T18:59:29.309Z,23.73
2022-12-06T19:01:57.649Z,25.55
2022-12-06T19:04:26.071Z,23.75
2022-12-06T19:06:56.882Z,23.42
2022-12-06T19:09:25.033Z,24.05
2022-12-06T19:11:53.122Z,22.02
2022-12-06T19:14:22.993Z,24.15
2022-12-06T19:16:53.435Z,25.73
2022-12-06T19:19:24.043Z,24.42
2022-12-06T19:21:53.929Z,23.77
2022-12-06T19:24:23.723Z,25.15
2022-12-06T19:26:53.045Z,24.67
2022-12-06T19:29:22.074Z,23.20
2022-12-06T19:31:50.354Z,24.02
2022-12-06T19:34:22.366Z,24.25
2022-12-06T19:36:51.384Z,23.25
2022-12-06T19:39:20.423Z,23.90
2022-12-06T19:42:06.783Z,25.23
2022-12-06T19:44:35.788Z,23.80
2022-12-06T19:47:04.229Z,23.95
2022-12-06T19:49:33.976Z,23.52
2022-12-06T19:52:02.183Z,23.58
2022-12-06T19:54:32.709Z,23.90
2022-12-06T19:57:02.208Z,24.25
2022-12-06T19:59:32.180Z,22.13
2022-12-06T20:02:00.534Z,21.95
2022-12-06T20:04:31.277Z,23.08
2022-12-06T20:07:01.999Z,23.45
2022-12-06T20:09:31.200Z,23.65
2022-12-06T20:12:09.718Z,21.75
2022-12-06T20:14:40.068Z,22.55
2022-12-06T20:17:10.523Z,23.70
2022-12-06T20:19:39.613Z,22.92
2022-12-06T20:22:16.815Z,22.23
2022-12-06T20:24:46.754Z,23.10
2022-12-06T20:27:15.500Z,20.58
2022-12-06T20:29:43.855Z,22.60
2022-12-06T20:32:12.224Z,21.52
2022-12-06T20:34:40.793Z,22.48
2022-12-06T20:37:10.547Z,21.17
2022-12-06T20:39:38.628Z,20.05
2022-12-06T20:42:07.495Z,21.42
2022-12-06T20:44:36.779Z,21.05
2022-12-06T20:47:05.225Z,20.52
2022-12-06T20:49:33.514Z,20.88
2022-12-06T20:52:02.976Z,20.15
2022-12-06T20:54:32.604Z,21.85
2022-12-06T20:57:01.948Z,22.13
2022-12-06T20:59:30.289Z,22.08
2022-12-06T21:01:58.802Z,24.67
2022-12-06T21:04:28.048Z,22.77
2022-12-06T21:06:56.905Z,24.73
2022-12-06T21:09:25.149Z,24.33
2022-12-06T21:11:54.573Z,22.27
2022-12-06T21:14:23.207Z,21.45
2022-12-06T21:16:52.194Z,21.23
2022-12-06T21:19:20.820Z,20.55
2022-12-06T21:21:55.364Z,18.25
2022-12-06T21:24:26.864Z,18.15
2022-12-06T21:26:56.529Z,16.23
2022-12-06T21:29:30.914Z,16.33
2022-12-06T21:34:29.209Z,17.08
2022-12-06T21:36:57.337Z,19.92
2022-12-06T21:39:25.764Z,16.63
2022-12-06T21:41:57.571Z,17.98
2022-12-06T21:44:28.162Z,18.07
2022-12-06T21:46:56.435Z,17.83
2022-12-06T21:49:24.870Z,14.00
2022-12-06T21:52:00.354Z,14.00
2022-12-06T21:54:31.532Z,13.85
2022-12-06T21:57:01.517Z,15.25
2022-12-06T21:59:30.150Z,13.65
2022-12-06T22:02:01.310Z,13.93
2022-12-06T22:04:29.505Z,12.90
2022-12-06T22:06:57.904Z,12.55
2022-12-06T22:09:25.951Z,12.43
2022-12-06T22:11:54.375Z,11.32
2022-12-06T22:14:23.857Z,11.68
2022-12-06T22:16:52.025Z,11.68
2022-12-06T22:19:20.125Z,11.75
2022-12-06T22:21:48.742Z,12.57
2022-12-06T22:24:16.842Z,11.40
2022-12-06T22:26:44.896Z,8.95
2022-12-06T22:29:13.523Z,9.38
2022-12-06T22:31:43.599Z,9.57
2022-12-06T22:34:12.352Z,10.95
2022-12-06T22:36:40.671Z,11.85
2022-12-06T22:39:08.702Z,12.38
2022-12-06T22:41:37.202Z,11.60
2022-12-06T22:44:07.132Z,10.73
2022-12-06T22:46:36.664Z,11.32
2022-12-06T22:49:07.103Z,12.68
2022-12-06T22:51:36.758Z,11.30
2022-12-06T22:54:06.769Z,10.70
2022-12-06T22:56:35.422Z,10.15
2022-12-06T22:59:03.939Z,9.48
2022-12-06T23:01:33.362Z,11.77
2022-12-06T23:04:03.441Z,11.70
2022-12-06T23:06:36.387Z,11.65
2022-12-06T23:09:04.912Z,14.55
2022-12-06T23:11:35.097Z,13.65
2022-12-06T23:14:04.241Z,15.55
2022-12-06T23:16:33.127Z,13.23
2022-12-06T23:19:03.415Z,13.52
2022-12-06T23:21:33.426Z,15.40
2022-12-06T23:24:05.110Z,16.98
2022-12-06T23:26:34.984Z,18.20
2022-12-06T23:29:03.550Z,20.08
2022-12-06T23:31:33.903Z,20.75
2022-12-06T23:34:04.662Z,22.85
2022-12-06T23:36:34.680Z,23.85
2022-12-06T23:39:05.435Z,20.58
2022-12-06T23:41:34.329Z,21.02
2022-12-06T23:44:02.881Z,21.02
2022-12-06T23:46:32.348Z,21.38
2022-12-06T23:49:00.969Z,20.88
2022-12-06T23:51:33.895Z,19.73
2022-12-06T23:54:05.384Z,22.17
2022-12-06T23:56:36.980Z,21.23
2022-12-06T23:59:06.714Z,19.35
